Time;durP1;ratioP1;P1;durP2;ratioP2;P2;SDS_P1;SDS_P2;PMS_P1;PMS_P2;Temp;Humidity;BMP_temperature;BMP_pressure;BME280_temperature;BME280_humidity;BME280_pressure;Samples;Min_cycle;Max_cycle;Signal;HPM_P1;HPM_P2
2022/07/24 00:02:06;;;;;;;16.13;6.78;;;;;;;23.48;nan;100183.28;5012501;28;20044;-71
2022/07/24 00:04:31;;;;;;;21.30;7.55;;;;;;;23.63;nan;100219.63;5013485;28;20037;-72
2022/07/24 00:06:56;;;;;;;17.63;7.10;;;;;;;23.59;nan;100210.66;5012992;28;20484;-71
2022/07/24 00:09:22;;;;;;;19.15;7.05;;;;;;;23.57;nan;100219.00;5013645;28;20034;-71
2022/07/24 00:11:47;;;;;;;17.20;7.10;;;;;;;23.60;nan;100228.34;5013727;28;20034;-72
2022/07/24 00:14:13;;;;;;;17.65;6.93;;;;;;;23.54;nan;100220.44;5013693;28;20064;-70
2022/07/24 00:16:38;;;;;;;18.70;7.13;;;;;;;23.28;nan;100195.47;5013498;28;20033;-72
2022/07/24 00:19:04;;;;;;;14.52;6.60;;;;;;;23.35;nan;100207.31;5013553;28;20034;-72
2022/07/24 00:21:29;;;;;;;15.90;6.80;;;;;;;;;;5012680;28;20037;-72
2022/07/24 00:23:55;;;;;;;18.93;6.53;;;;;;;23.34;nan;100219.19;5013349;28;20400;-70
2022/07/24 00:26:20;;;;;;;17.77;6.25;;;;;;;23.36;nan;100216.16;5006726;28;20326;-70
2022/07/24 00:28:46;;;;;;;17.92;6.57;;;;;;;23.33;nan;100265.94;5011386;28;20030;-72
2022/07/24 00:31:11;;;;;;;15.63;6.45;;;;;;;23.36;nan;100235.75;5012415;28;20026;-72
2022/07/24 00:33:37;;;;;;;17.85;6.72;;;;;;;23.33;nan;100268.63;5012733;28;20455;-72
2022/07/24 00:36:03;;;;;;;24.25;6.82;;;;;;;23.31;nan;100232.44;5013042;28;20030;-72
2022/07/24 00:38:28;;;;;;;20.95;7.45;;;;;;;23.29;nan;100223.88;5011966;28;20064;-71
2022/07/24 00:40:53;;;;;;;14.10;6.68;;;;;;;23.29;nan;100223.88;5011143;28;20022;-71
2022/07/24 00:43:19;;;;;;;20.33;7.03;;;;;;;23.28;nan;100227.69;5014126;28;20017;-71
2022/07/24 00:45:45;;;;;;;19.73;6.38;;;;;;;23.27;nan;100301.31;5013361;28;20403;-72
2022/07/24 00:48:10;;;;;;;16.48;6.45;;;;;;;23.24;nan;100206.03;5010205;28;20113;-71
2022/07/24 00:50:36;;;;;;;22.50;7.13;;;;;;;23.24;nan;100232.09;5012728;28;20030;-71
2022/07/24 00:53:03;;;;;;;16.25;6.13;;;;;;;23.19;nan;100243.78;5009545;28;20107;-71
2022/07/24 00:55:29;;;;;;;19.13;6.47;;;;;;;23.07;nan;100228.28;5012775;28;20456;-71
2022/07/24 00:57:54;;;;;;;20.67;6.60;;;;;;;23.06;nan;100201.75;5011089;28;20340;-72
2022/07/24 01:00:21;;;;;;;18.90;6.53;;;;;;;23.03;nan;100215.78;5012137;28;20085;-72
2022/07/24 01:02:49;;;;;;;21.55;6.05;;;;;;;23.02;nan;100230.34;5012652;28;20026;-71
2022/07/24 01:05:15;;;;;;;14.55;6.00;;;;;;;22.95;nan;100268.34;5010557;28;20029;-71
2022/07/24 01:07:40;;;;;;;14.80;6.18;;;;;;;22.96;nan;100210.84;5009420;28;20040;-72
2022/07/24 01:10:07;;;;;;;13.25;6.20;;;;;;;22.96;nan;100189.34;5010419;28;20037;-72
2022/07/24 01:12:34;;;;;;;13.88;5.70;;;;;;;22.95;nan;100295.19;5009794;28;20041;-71
2022/07/24 01:15:00;;;;;;;16.10;6.68;;;;;;;22.92;nan;100201.84;5011093;28;20049;-71
2022/07/24 01:17:44;;;;;;;17.10;6.68;;;;;;;22.81;nan;100192.50;5011483;28;20520;-71
2022/07/24 01:20:10;;;;;;;15.68;5.80;;;;;;;22.86;nan;100221.88;5010701;28;20030;-71
2022/07/24 01:22:36;;;;;;;25.77;6.63;;;;;;;22.89;nan;100242.72;5010072;28;20542;-71
2022/07/24 01:25:01;;;;;;;15.23;6.10;;;;;;;22.87;nan;100226.16;5010884;28;20038;-72
2022/07/24 01:27:26;;;;;;;14.77;6.40;;;;;;;22.86;nan;100219.19;5012341;28;20041;-72
2022/07/24 01:29:52;;;;;;;20.30;6.30;;;;;;;22.82;nan;100245.06;5011144;28;20030;-72
2022/07/24 01:32:18;;;;;;;14.57;6.28;;;;;;;22.78;nan;100242.22;5012087;28;20464;-71
2022/07/24 01:34:44;;;;;;;14.75;6.55;;;;;;;22.70;nan;100240.31;5011748;28;20384;-72
2022/07/24 01:37:10;;;;;;;16.15;6.57;;;;;;;22.69;nan;100252.13;5010731;28;20108;-71
2022/07/24 01:39:35;;;;;;;18.92;6.95;;;;;;;22.64;nan;100263.00;5007187;28;20057;-71
2022/07/24 01:42:01;;;;;;;16.98;6.50;;;;;;;22.61;nan;100275.16;5014090;28;20033;-71
2022/07/24 01:44:26;;;;;;;18.40;6.90;;;;;;;22.59;nan;100233.63;5009109;28;20066;-71
2022/07/24 01:46:51;;;;;;;18.02;6.35;;;;;;;22.54;nan;100258.72;5012243;28;20051;-71
2022/07/24 01:49:18;;;;;;;15.32;6.15;;;;;;;22.52;nan;100253.63;5011909;28;20025;-70
2022/07/24 01:51:43;;;;;;;24.00;6.85;;;;;;;22.43;nan;100242.06;5012072;28;20037;-71
2022/07/24 01:54:09;;;;;;;12.60;6.57;;;;;;;22.42;nan;100240.50;5010268;28;20109;-71
2022/07/24 01:56:34;;;;;;;13.68;7.13;;;;;;;22.43;nan;100247.44;5010476;28;20069;-72
2022/07/24 01:58:59;;;;;;;12.55;6.40;;;;;;;22.44;nan;100199.94;5009581;28;20033;-70
2022/07/24 02:01:26;;;;;;;12.98;6.15;;;;;;;22.43;nan;100301.09;5010901;28;20112;-71
2022/07/24 02:03:51;;;;;;;12.85;6.22;;;;;;;22.27;nan;100233.63;5011583;28;20029;-70
2022/07/24 02:06:17;;;;;;;15.30;6.80;;;;;;;22.29;nan;100263.63;5010770;28;20048;-70
2022/07/24 02:08:44;;;;;;;18.15;6.25;;;;;;;22.25;nan;100251.13;5011676;28;20056;-70
2022/07/24 02:11:09;;;;;;;14.48;6.88;;;;;;;22.23;nan;100278.25;5011862;28;20037;-70
2022/07/24 02:13:34;;;;;;;15.32;6.32;;;;;;;22.24;nan;100261.09;5011759;28;20052;-70
2022/07/24 02:16:00;;;;;;;14.00;6.85;;;;;;;22.27;nan;100246.25;5011210;28;20373;-70
2022/07/24 02:18:25;;;;;;;13.02;6.28;;;;;;;22.24;nan;100247.66;5011378;28;20022;-72
2022/07/24 02:20:51;;;;;;;15.30;7.00;;;;;;;22.25;nan;100343.13;5011270;28;20038;-71
2022/07/24 02:23:19;;;;;;;14.85;6.50;;;;;;;22.19;nan;100300.59;5011173;28;20022;-72
2022/07/24 02:25:50;;;;;;;12.70;7.22;;;;;;;22.11;nan;100363.03;5011186;28;20515;-71
2022/07/24 02:28:16;;;;;;;15.05;7.32;;;;;;;22.05;nan;100403.38;5011435;28;20048;-71
2022/07/24 02:30:42;;;;;;;23.23;7.80;;;;;;;22.15;nan;100337.97;5011595;28;20034;-71
2022/07/24 02:33:09;;;;;;;31.60;8.32;;;;;;;22.35;nan;100342.09;5020571;28;20070;-72
2022/07/24 02:35:36;;;;;;;37.30;9.05;;;;;;;22.62;nan;100407.47;5009226;28;20041;-72
2022/07/24 02:38:01;;;;;;;29.63;8.57;;;;;;;22.79;nan;100353.09;5010195;28;20487;-70
2022/07/24 02:40:27;;;;;;;34.28;8.93;;;;;;;22.98;nan;100375.16;5007874;28;20076;-69
2022/07/24 02:42:52;;;;;;;35.10;8.82;;;;;;;23.20;nan;100384.28;5010332;28;20099;-72
2022/07/24 02:45:18;;;;;;;24.23;8.88;;;;;;;23.33;nan;100396.81;5008345;28;20045;-71
2022/07/24 02:47:52;;;;;;;35.00;9.10;;;;;;;23.60;nan;100386.94;5012937;28;20034;-70
2022/07/24 02:50:19;;;;;;;23.88;9.20;;;;;;;23.78;nan;100392.06;5014122;28;20080;-70
2022/07/24 02:52:45;;;;;;;22.73;9.80;;;;;;;24.00;nan;100368.84;5012324;28;20103;-70
2022/07/24 02:55:11;;;;;;;18.67;9.05;;;;;;;24.12;nan;100387.03;5015117;28;20038;-70
2022/07/24 02:57:36;;;;;;;22.92;9.38;;;;;;;24.22;nan;100397.50;5013175;28;20026;-71
2022/07/24 03:00:08;;;;;;;20.25;9.52;;;;;;;24.36;nan;100359.66;5017758;28;20034;-70
2022/07/24 03:02:34;;;;;;;21.30;9.48;;;;;;;24.47;nan;100373.59;5012762;28;20030;-71
2022/07/24 03:05:00;;;;;;;18.67;9.50;;;;;;;24.53;nan;100369.63;5013589;28;20037;-71
2022/07/24 03:07:26;;;;;;;23.55;9.45;;;;;;;24.60;nan;100373.41;5013023;28;20056;-71
2022/07/24 03:09:51;;;;;;;15.68;9.45;;;;;;;24.60;nan;100369.94;5012962;28;20717;-70
2022/07/24 03:12:17;;;;;;;21.33;9.98;;;;;;;24.65;nan;100391.31;5015071;28;20057;-70
2022/07/24 03:14:42;;;;;;;21.90;9.48;;;;;;;24.69;nan;100391.47;5013557;28;20193;-71
2022/07/24 03:17:08;;;;;;;15.27;9.52;;;;;;;24.72;nan;100390.81;5013843;28;20658;-71
2022/07/24 03:19:33;;;;;;;17.40;9.90;;;;;;;24.73;nan;100392.41;5014812;28;20036;-70
2022/07/24 03:21:58;;;;;;;18.85;9.68;;;;;;;24.74;nan;100394.78;5029061;28;20026;-72
2022/07/24 03:24:24;;;;;;;23.48;10.25;;;;;;;24.75;nan;100396.34;5013074;28;20045;-71
2022/07/24 03:26:49;;;;;;;21.77;10.25;;;;;;;24.73;nan;100390.50;5013904;28;20083;-70
2022/07/24 03:29:15;;;;;;;19.17;9.27;;;;;;;24.74;nan;100397.47;5013365;28;20510;-72
2022/07/24 03:31:40;;;;;;;21.25;10.00;;;;;;;24.71;nan;100386.53;5014492;28;20034;-70
2022/07/24 03:34:06;;;;;;;25.60;10.48;;;;;;;24.74;nan;100389.41;5014134;28;20034;-69
2022/07/24 03:36:32;;;;;;;28.45;9.82;;;;;;;24.71;nan;100383.84;5014515;28;20602;-70
2022/07/24 03:38:57;;;;;;;20.38;9.90;;;;;;;24.69;nan;100392.25;5014440;28;20038;-72
2022/07/24 03:41:23;;;;;;;23.25;9.45;;;;;;;24.71;nan;100395.44;5014663;28;20103;-71
2022/07/24 03:43:48;;;;;;;26.63;11.43;;;;;;;24.75;nan;100396.34;5017116;28;20160;-70
2022/07/24 03:46:14;;;;;;;20.52;10.65;;;;;;;24.70;nan;100383.06;5014684;28;20042;-71
2022/07/24 03:48:39;;;;;;;26.23;10.82;;;;;;;24.77;nan;100396.81;5012279;28;20469;-72
2022/07/24 03:51:05;;;;;;;26.23;11.13;;;;;;;24.80;nan;100403.47;5014537;28;20041;-71
2022/07/24 03:53:30;;;;;;;28.48;9.82;;;;;;;24.78;nan;100390.34;5011679;28;20041;-70
2022/07/24 03:55:55;;;;;;;20.08;10.40;;;;;;;24.82;nan;100399.34;5010570;28;20504;-70
2022/07/24 03:58:21;;;;;;;16.25;9.60;;;;;;;24.83;nan;100400.94;5011258;28;20069;-70
2022/07/24 04:00:46;;;;;;;20.38;9.65;;;;;;;24.81;nan;100394.28;5012693;28;20103;-70
2022/07/24 04:03:12;;;;;;;18.42;9.35;;;;;;;24.66;nan;100362.47;5012979;28;20503;-71
2022/07/24 04:05:37;;;;;;;20.13;9.48;;;;;;;24.87;nan;100398.38;5012884;28;20142;-71
2022/07/24 04:08:02;;;;;;;21.35;9.73;;;;;;;24.87;nan;100392.22;5014022;28;20065;-72
2022/07/24 04:10:28;;;;;;;30.20;9.80;;;;;;;24.91;nan;100398.53;5012300;28;20026;-71
2022/07/24 04:12:53;;;;;;;23.98;9.23;;;;;;;24.86;nan;100388.72;5011537;28;20041;-72
2022/07/24 04:15:19;;;;;;;21.55;9.45;;;;;;;24.90;nan;100394.25;5013856;28;20025;-72
2022/07/24 04:17:44;;;;;;;21.10;9.02;;;;;;;24.91;nan;100391.25;5012440;28;20042;-72
2022/07/24 04:20:10;;;;;;;20.42;8.45;;;;;;;24.95;nan;100399.47;5012406;28;20100;-73
2022/07/24 04:22:36;;;;;;;21.00;9.82;;;;;;;24.97;nan;100397.25;5013267;28;20030;-73
2022/07/24 04:25:02;;;;;;;19.60;8.88;;;;;;;24.94;nan;100409.47;5013179;28;20061;-75
2022/07/24 04:27:28;;;;;;;19.20;9.43;;;;;;;24.99;nan;100373.47;5010393;28;20030;-74
2022/07/24 04:29:53;;;;;;;16.17;9.13;;;;;;;25.03;nan;100360.94;5010892;28;20380;-74
2022/07/24 04:32:19;;;;;;;16.75;9.10;;;;;;;25.07;nan;100375.34;5012561;28;20030;-75
2022/07/24 04:34:44;;;;;;;18.98;9.30;;;;;;;25.11;nan;100341.25;5012940;28;20037;-74
2022/07/24 04:37:10;;;;;;;14.90;9.23;;;;;;;25.20;nan;100344.72;5010583;28;20030;-74
2022/07/24 04:39:35;;;;;;;15.82;8.93;;;;;;;25.27;nan;100340.75;5008870;28;20096;-74
2022/07/24 04:42:01;;;;;;;16.45;8.65;;;;;;;25.24;nan;100383.41;5014165;28;20084;-74
2022/07/24 04:44:26;;;;;;;15.25;8.90;;;;;;;25.28;nan;100318.84;5012122;28;20124;-75
2022/07/24 04:46:52;;;;;;;15.40;8.95;;;;;;;25.28;nan;100312.66;5009076;28;20590;-74
2022/07/24 04:49:17;;;;;;;19.38;8.93;;;;;;;25.29;nan;100338.50;5009502;28;20392;-75
2022/07/24 04:51:46;;;;;;;23.40;9.60;;;;;;;25.27;nan;100324.56;5019218;28;20038;-69
2022/07/24 04:54:11;;;;;;;17.33;8.88;;;;;;;25.29;nan;100352.00;5012000;28;20124;-71
2022/07/24 04:56:37;;;;;;;18.02;9.43;;;;;;;25.25;nan;100393.03;5011894;28;20108;-72
2022/07/24 04:59:02;;;;;;;26.08;9.30;;;;;;;25.29;nan;100366.25;5003784;28;20030;-70
2022/07/24 05:01:28;;;;;;;15.48;9.43;;;;;;;25.33;nan;100372.59;5011392;28;20069;-72
2022/07/24 05:03:56;;;;;;;21.80;8.98;;;;;;;25.37;nan;100389.66;5023696;28;20499;-73
2022/07/24 05:06:22;;;;;;;21.17;10.00;;;;;;;25.43;nan;100390.28;5009526;28;20080;-73
2022/07/24 05:08:47;;;;;;;18.35;9.13;;;;;;;25.47;nan;100303.00;5008456;28;20034;-73
2022/07/24 05:11:13;;;;;;;17.48;8.63;;;;;;;25.53;nan;100349.47;5009572;28;20057;-76
2022/07/24 05:13:38;;;;;;;11.52;8.30;;;;;;;25.60;nan;100357.84;5008056;28;20029;-73
2022/07/24 05:16:04;;;;;;;23.48;9.80;;;;;;;25.69;nan;100365.84;5010595;28;20125;-73
2022/07/24 05:18:29;;;;;;;20.85;9.02;;;;;;;25.71;nan;100350.13;5012356;28;20033;-74
2022/07/24 05:20:55;;;;;;;15.93;9.32;;;;;;;25.64;nan;100341.78;5009348;28;20040;-74
2022/07/24 05:23:20;;;;;;;15.27;10.20;;;;;;;25.82;nan;100366.72;5009805;28;20022;-74
2022/07/24 05:25:46;;;;;;;21.20;10.98;;;;;;;25.90;nan;100460.31;5006496;28;20054;-73
2022/07/24 05:28:11;;;;;;;20.17;9.85;;;;;;;25.97;nan;100382.34;5007561;28;20033;-73
2022/07/24 05:30:36;;;;;;;20.77;9.15;;;;;;;26.06;nan;100385.00;5009889;28;20029;-72
2022/07/24 05:33:02;;;;;;;22.90;8.73;;;;;;;26.12;nan;100383.66;5011692;28;20030;-74
2022/07/24 05:35:27;;;;;;;17.77;8.63;;;;;;;26.18;nan;100381.56;5005748;28;20042;-73
2022/07/24 05:37:53;;;;;;;19.20;9.13;;;;;;;26.27;nan;100363.38;5010555;28;20038;-74
2022/07/24 05:40:18;;;;;;;20.65;8.35;;;;;;;26.35;nan;100377.91;5011940;28;20029;-73
2022/07/24 05:42:43;;;;;;;15.65;9.10;;;;;;;26.42;nan;100357.34;5010201;28;20062;-72
2022/07/24 05:45:09;;;;;;;15.27;8.48;;;;;;;26.48;nan;100361.44;5012217;28;20079;-72
2022/07/24 05:47:39;;;;;;;16.55;8.15;;;;;;;26.59;nan;100369.13;5007788;28;20081;-73
2022/07/24 05:50:12;;;;;;;11.77;8.48;;;;;;;26.66;nan;100377.50;5009711;28;20128;-72
2022/07/24 05:52:38;;;;;;;13.77;7.97;;;;;;;26.74;nan;100398.22;5011564;28;20029;-72
2022/07/24 05:55:05;;;;;;;14.68;8.18;;;;;;;26.78;nan;100403.75;5009033;28;20065;-72
2022/07/24 05:57:31;;;;;;;16.73;8.30;;;;;;;26.86;nan;100416.38;5010905;28;20060;-72
2022/07/24 05:59:56;;;;;;;10.82;8.18;;;;;;;26.94;nan;100394.66;5012958;28;20125;-72
2022/07/24 06:02:22;;;;;;;10.93;7.60;;;;;;;27.05;nan;100392.28;5008427;28;20049;-71
2022/07/24 06:04:47;;;;;;;13.30;7.90;;;;;;;27.13;nan;100418.44;5005925;28;20034;-74
2022/07/24 06:07:13;;;;;;;20.73;8.60;;;;;;;27.20;nan;100411.72;5010547;28;20022;-73
2022/07/24 06:09:39;;;;;;;13.07;8.10;;;;;;;27.31;nan;100404.75;5008998;28;20079;-73
2022/07/24 06:12:05;;;;;;;14.02;8.07;;;;;;;27.38;nan;100415.00;5009079;28;20045;-73
2022/07/24 06:14:31;;;;;;;13.10;9.02;;;;;;;27.46;nan;100417.56;5009001;28;20022;-73
2022/07/24 06:16:57;;;;;;;20.25;8.65;;;;;;;27.52;nan;100429.75;5008368;28;20037;-72
2022/07/24 06:19:24;;;;;;;12.52;8.30;;;;;;;27.57;nan;100420.63;5009233;28;20030;-73
2022/07/24 06:21:49;;;;;;;12.95;7.50;;;;;;;27.66;nan;100420.53;4991276;28;20037;-72
2022/07/24 06:24:14;;;;;;;9.15;6.97;;;;;;;27.68;nan;100400.09;5009879;28;20476;-72
2022/07/24 06:26:40;;;;;;;17.45;8.15;;;;;;;27.78;nan;100432.09;5007759;28;20030;-72
2022/07/24 06:29:05;;;;;;;16.35;8.43;;;;;;;27.83;nan;100427.63;5010561;28;20034;-72
2022/07/24 06:31:31;;;;;;;11.65;7.53;;;;;;;27.87;nan;100388.72;5010073;28;20041;-72
2022/07/24 06:33:57;;;;;;;14.20;7.63;;;;;;;27.98;nan;100426.91;5011577;28;20030;-72
2022/07/24 06:36:22;;;;;;;15.07;8.00;;;;;;;28.05;nan;100426.34;5011426;28;20029;-73
2022/07/24 06:38:48;;;;;;;13.32;7.32;;;;;;;28.17;nan;100424.38;5011492;28;20040;-72
2022/07/24 06:41:14;;;;;;;11.77;8.10;;;;;;;28.24;nan;100450.09;5010496;28;20115;-72
2022/07/24 06:43:39;;;;;;;15.65;7.70;;;;;;;28.37;nan;100424.53;5011322;28;20057;-77
2022/07/24 06:46:05;;;;;;;13.00;7.30;;;;;;;28.50;nan;100447.78;5005533;28;20575;-73
2022/07/24 06:48:31;;;;;;;10.68;6.82;;;;;;;28.56;nan;100422.00;5005046;28;20108;-72
2022/07/24 06:50:56;;;;;;;8.90;6.88;;;;;;;28.68;nan;100440.09;5009698;28;20122;-74
2022/07/24 06:53:22;;;;;;;11.73;7.03;;;;;;;28.76;nan;100424.84;5011376;28;20369;-73
2022/07/24 06:55:47;;;;;;;12.38;7.05;;;;;;;28.67;nan;100400.63;5010880;28;20395;-73
2022/07/24 06:58:13;;;;;;;14.35;7.25;;;;;;;28.75;nan;100444.94;5009011;28;20033;-72
2022/07/24 07:00:39;;;;;;;10.60;6.95;;;;;;;28.71;nan;100420.47;5009675;28;20025;-72
2022/07/24 07:03:05;;;;;;;11.00;6.80;;;;;;;28.70;nan;100432.44;5011039;28;20057;-73
2022/07/24 07:05:31;;;;;;;9.95;6.47;;;;;;;28.72;nan;100413.91;5009009;28;20484;-72
2022/07/24 07:07:57;;;;;;;9.18;6.40;;;;;;;28.81;nan;100440.84;5008295;28;20096;-72
2022/07/24 07:10:23;;;;;;;12.27;6.40;;;;;;;28.77;nan;100456.22;5010642;28;20411;-71
2022/07/24 07:12:48;;;;;;;7.30;6.55;;;;;;;28.88;nan;100421.25;5011174;28;20034;-72
2022/07/24 07:15:14;;;;;;;11.90;6.57;;;;;;;28.88;nan;100476.28;5008359;28;20093;-73
2022/07/24 07:17:41;;;;;;;10.18;6.78;;;;;;;29.04;nan;100452.69;5007323;28;20077;-71
2022/07/24 07:20:08;;;;;;;10.80;6.25;;;;;;;29.08;nan;100441.94;5009081;28;20104;-71
2022/07/24 07:22:33;;;;;;;6.85;6.13;;;;;;;29.14;nan;100461.44;5009503;28;20106;-70
2022/07/24 07:24:59;;;;;;;10.82;6.90;;;;;;;29.17;nan;100455.34;5019613;28;20145;-71
2022/07/24 07:27:24;;;;;;;10.30;6.80;;;;;;;29.18;nan;100486.75;5009043;28;20038;-72
2022/07/24 07:29:49;;;;;;;11.43;7.40;;;;;;;29.23;nan;100456.66;5008996;28;20546;-72
2022/07/24 07:32:15;;;;;;;13.20;7.45;;;;;;;29.26;nan;100469.53;5011096;28;20447;-71
2022/07/24 07:34:40;;;;;;;9.98;7.55;;;;;;;29.29;nan;100468.81;5014283;28;20057;-72
2022/07/24 07:37:06;;;;;;;10.00;7.18;;;;;;;29.31;nan;100427.75;5014657;28;20053;-73
2022/07/24 07:39:31;;;;;;;9.32;7.35;;;;;;;29.45;nan;100474.22;5013894;28;20036;-71
2022/07/24 07:41:56;;;;;;;9.02;6.57;;;;;;;29.51;nan;100472.06;5017764;28;20052;-72
2022/07/24 07:44:22;;;;;;;11.77;7.25;;;;;;;29.56;nan;100485.34;5012292;28;20084;-72
2022/07/24 07:46:47;;;;;;;11.82;6.78;;;;;;;29.59;nan;100455.56;5012006;28;20069;-73
2022/07/24 07:49:13;;;;;;;7.32;6.63;;;;;;;29.59;nan;100492.78;5010987;28;20034;-73
2022/07/24 07:51:39;;;;;;;8.82;7.00;;;;;;;29.65;nan;100464.25;5014050;28;20462;-73
2022/07/24 07:54:04;;;;;;;9.20;7.43;;;;;;;29.57;nan;100478.78;5012437;28;20044;-73
2022/07/24 07:56:31;;;;;;;15.25;7.70;;;;;;;29.70;nan;100455.84;5010583;28;20037;-73
2022/07/24 07:58:56;;;;;;;9.73;7.40;;;;;;;29.70;nan;100460.50;5014067;28;20026;-73
2022/07/24 08:01:22;;;;;;;12.80;8.10;;;;;;;29.73;nan;100484.22;5012780;28;20084;-72
2022/07/24 08:03:48;;;;;;;8.48;7.05;;;;;;;29.82;nan;100479.41;5010690;28;20109;-72
2022/07/24 08:06:13;;;;;;;9.52;7.30;;;;;;;29.88;nan;100477.97;5011418;28;20145;-73
2022/07/24 08:08:39;;;;;;;9.48;7.28;;;;;;;29.89;nan;100465.97;5013492;28;20034;-72
2022/07/24 08:11:04;;;;;;;12.23;7.78;;;;;;;29.99;nan;100483.66;5013837;28;20038;-72
2022/07/24 08:13:30;;;;;;;8.55;7.22;;;;;;;30.06;nan;100495.44;5013493;28;20026;-73
2022/07/24 08:15:56;;;;;;;14.98;7.25;;;;;;;30.13;nan;100481.25;5012072;28;20447;-72
2022/07/24 08:18:21;;;;;;;8.52;7.40;;;;;;;30.19;nan;100487.16;5005894;28;20034;-73
2022/07/24 08:20:47;;;;;;;10.35;7.63;;;;;;;30.27;nan;100506.00;5009899;28;20099;-73
2022/07/24 08:23:12;;;;;;;13.07;7.72;;;;;;;30.34;nan;100482.84;5008383;28;20419;-73
2022/07/24 08:25:39;;;;;;;9.55;8.07;;;;;;;30.29;nan;100483.94;5009041;28;20061;-73
2022/07/24 08:28:05;;;;;;;9.93;8.00;;;;;;;30.31;nan;100492.50;5011137;28;20041;-73
2022/07/24 08:30:30;;;;;;;11.63;8.23;;;;;;;30.26;nan;100490.84;5010598;28;20069;-72
2022/07/24 08:32:56;;;;;;;10.63;8.70;;;;;;;30.22;nan;100500.84;5008676;28;20026;-74
2022/07/24 08:35:23;;;;;;;12.05;8.63;;;;;;;30.27;nan;100511.44;5009309;28;20036;-73
2022/07/24 08:37:48;;;;;;;10.85;8.20;;;;;;;30.38;nan;100505.44;5012644;28;20492;-73
2022/07/24 08:40:14;;;;;;;10.13;8.15;;;;;;;30.43;nan;100502.44;5012572;28;20036;-72
2022/07/24 08:42:41;;;;;;;12.48;8.65;;;;;;;30.49;nan;100509.97;5011632;28;20040;-69
2022/07/24 08:45:07;;;;;;;13.18;8.65;;;;;;;30.56;nan;100508.53;5010779;28;20034;-68
2022/07/24 08:47:33;;;;;;;9.70;8.07;;;;;;;30.54;nan;100514.31;5010218;28;20529;-68
2022/07/24 08:49:59;;;;;;;11.82;7.82;;;;;;;30.48;nan;100505.69;5012548;28;20120;-69
2022/07/24 08:52:26;;;;;;;9.05;7.43;;;;;;;30.50;nan;100502.59;5011462;28;20499;-72
2022/07/24 08:54:52;;;;;;;9.00;6.97;;;;;;;30.54;nan;100511.59;5012709;28;20022;-72
2022/07/24 08:57:19;;;;;;;9.75;7.05;;;;;;;30.58;nan;100515.19;5013229;28;20030;-72
2022/07/24 08:59:44;;;;;;;9.25;6.97;;;;;;;30.61;nan;100555.22;5012399;28;20034;-71
2022/07/24 09:02:10;;;;;;;9.07;7.45;;;;;;;30.62;nan;100520.69;5011402;28;20051;-72
2022/07/24 09:04:35;;;;;;;14.68;8.23;;;;;;;30.57;nan;100526.41;5009342;28;20089;-71
2022/07/24 09:07:04;;;;;;;9.45;8.18;;;;;;;30.51;nan;100520.47;5008636;28;20770;-73
2022/07/24 09:09:29;;;;;;;;;;;;;;;30.56;nan;100533.00;5009237;28;20132;-73
2022/07/24 09:12:05;;;;;;;10.13;8.68;;;;;;;30.57;nan;100527.19;5010728;28;20344;-73
2022/07/24 09:14:32;;;;;;;11.13;8.35;;;;;;;30.59;nan;100499.66;5021970;28;20108;-73
2022/07/24 09:17:04;;;;;;;9.70;8.00;;;;;;;30.62;nan;100521.47;5009773;28;20116;-73
2022/07/24 09:19:31;;;;;;;13.43;8.50;;;;;;;30.60;nan;100469.41;5009034;28;20057;-71
2022/07/24 09:21:56;;;;;;;15.13;7.95;;;;;;;30.70;nan;100516.97;5010657;28;20033;-72
2022/07/24 09:24:22;;;;;;;11.10;7.60;;;;;;;30.70;nan;100511.53;5012002;28;20041;-72
2022/07/24 09:26:55;;;;;;;8.93;7.93;;;;;;;30.72;nan;100510.03;5012647;28;20037;-72
2022/07/24 09:29:23;;;;;;;9.68;8.35;;;;;;;30.82;nan;100513.31;5012644;28;20562;-72
2022/07/24 09:31:54;;;;;;;9.70;8.70;;;;;;;30.91;nan;100503.81;5010815;28;20132;-72
2022/07/24 09:34:20;;;;;;;12.18;8.77;;;;;;;30.97;nan;100509.72;5010741;28;20064;-71
2022/07/24 09:37:04;;;;;;;11.35;8.23;;;;;;;30.96;nan;100516.34;5010198;28;20029;-72
2022/07/24 09:39:34;;;;;;;12.35;8.05;;;;;;;30.89;nan;100521.63;5009435;28;20448;-74
2022/07/24 09:42:02;;;;;;;9.60;8.20;;;;;;;30.92;nan;100558.97;5009606;28;20036;-72
2022/07/24 09:44:29;;;;;;;11.63;8.10;;;;;;;31.06;nan;100488.53;5007153;28;20057;-72
2022/07/24 09:46:58;;;;;;;8.70;7.65;;;;;;;31.07;nan;100511.84;5010002;28;20042;-73
2022/07/24 09:49:24;;;;;;;11.30;7.68;;;;;;;31.07;nan;100494.75;5015828;28;20041;-73
2022/07/24 09:52:04;;;;;;;12.75;7.78;;;;;;;31.14;nan;100517.41;5010481;28;20392;-73
2022/07/24 09:54:36;;;;;;;13.95;7.50;;;;;;;31.25;nan;100505.97;5010124;28;20040;-74
2022/07/24 09:57:20;;;;;;;10.43;7.32;;;;;;;31.22;nan;100499.28;5008778;28;20056;-73
2022/07/24 09:59:48;;;;;;;9.95;7.57;;;;;;;31.28;nan;100518.81;5020235;28;20040;-73
2022/07/24 10:02:15;;;;;;;12.40;10.43;;;;;;;31.36;nan;100498.75;5008559;28;20041;-72
2022/07/24 10:04:45;;;;;;;11.73;6.88;;;;;;;31.31;nan;100493.59;5012298;28;20030;-73
2022/07/24 10:07:11;;;;;;;9.18;7.28;;;;;;;31.34;nan;100517.34;5008334;28;20037;-73
2022/07/24 10:09:41;;;;;;;9.48;7.65;;;;;;;31.41;nan;100489.53;5009278;28;20117;-74
2022/07/24 10:12:13;;;;;;;9.43;7.18;;;;;;;31.36;nan;100575.72;5004438;28;20041;-73
2022/07/24 10:14:39;;;;;;;11.95;7.75;;;;;;;31.46;nan;100500.09;5011839;28;20057;-74
2022/07/24 10:17:08;;;;;;;8.82;7.50;;;;;;;31.35;nan;100483.56;5009546;28;20037;-72
2022/07/24 10:19:52;;;;;;;11.48;7.80;;;;;;;31.46;nan;100536.28;5002282;28;20041;-71
2022/07/24 10:22:22;;;;;;;8.32;7.35;;;;;;;31.50;nan;100501.72;5010377;28;20034;-73
2022/07/24 10:25:00;;;;;;;8.88;6.53;;;;;;;31.50;nan;100490.84;5004962;28;20628;-73
2022/07/24 10:27:25;;;;;;;7.47;6.20;;;;;;;31.55;nan;100501.41;5004451;28;20080;-73
2022/07/24 10:29:57;;;;;;;8.15;5.90;;;;;;;31.72;nan;100497.38;5009660;28;20107;-73
2022/07/24 10:32:24;;;;;;;7.88;5.85;;;;;;;31.67;nan;100511.31;5009754;28;20506;-73
2022/07/24 10:35:22;;;;;;;7.25;6.18;;;;;;;31.75;nan;100525.81;5006643;28;20139;-73
2022/07/24 10:38:03;;;;;;;9.82;6.50;;;;;;;31.71;nan;100500.50;5007819;28;20052;-73
2022/07/24 10:40:50;;;;;;;9.40;6.40;;;;;;;31.82;nan;100504.13;5007480;28;20099;-74
2022/07/24 10:43:18;;;;;;;7.57;6.88;;;;;;;31.87;nan;100463.00;5008627;28;20563;-74
2022/07/24 10:45:43;;;;;;;8.40;7.00;;;;;;;31.94;nan;100467.72;5011457;28;20427;-72
2022/07/24 10:48:30;;;;;;;9.60;6.60;;;;;;;32.10;nan;100500.28;5009484;28;20271;-74
2022/07/24 10:50:59;;;;;;;8.25;6.00;;;;;;;32.18;nan;100505.47;5011193;28;20414;-74
2022/07/24 10:53:26;;;;;;;6.35;5.70;;;;;;;32.15;nan;100538.88;5021879;28;20037;-74
2022/07/24 10:55:51;;;;;;;7.43;6.65;;;;;;;32.16;nan;100493.38;5006590;28;20076;-75
2022/07/24 10:58:20;;;;;;;8.75;6.72;;;;;;;32.28;nan;100492.34;5010352;28;20034;-74
2022/07/24 11:00:47;;;;;;;8.43;6.70;;;;;;;32.33;nan;100490.06;5011892;28;20034;-74
2022/07/24 11:03:20;;;;;;;10.18;6.25;;;;;;;32.34;nan;100518.88;5011000;28;20041;-74
2022/07/24 11:06:07;;;;;;;8.00;6.43;;;;;;;32.38;nan;100478.84;5009662;28;20029;-73
2022/07/24 11:08:53;;;;;;;6.55;5.60;;;;;;;32.43;nan;100499.53;5013320;28;20126;-74
2022/07/24 11:11:21;;;;;;;8.32;6.55;;;;;;;32.51;nan;100470.44;5010016;28;20858;-74
2022/07/24 11:13:51;;;;;;;7.45;5.70;;;;;;;32.42;nan;100534.19;5007723;28;20042;-74
2022/07/24 11:16:22;;;;;;;8.25;6.05;;;;;;;32.42;nan;100515.13;5007330;28;20040;-73
2022/07/24 11:18:54;;;;;;;7.57;5.72;;;;;;;32.36;nan;100488.56;5009282;28;20139;-74
2022/07/24 11:21:35;;;;;;;10.00;6.20;;;;;;;32.41;nan;100493.66;5012327;28;20038;-73
2022/07/24 11:24:22;;;;;;;6.22;5.63;;;;;;;32.39;nan;100487.81;5002782;28;20468;-75
2022/07/24 11:26:59;;;;;;;7.45;6.13;;;;;;;32.45;nan;100483.59;5009138;28;20045;-72
2022/07/24 11:29:35;;;;;;;7.70;6.20;;;;;;;32.42;nan;100489.78;5010968;28;20026;-74
2022/07/24 11:32:10;;;;;;;7.18;6.38;;;;;;;32.38;nan;100445.34;5006426;28;20042;-74
2022/07/24 11:34:37;;;;;;;7.35;5.68;;;;;;;32.37;nan;100480.00;5012180;28;20034;-74
2022/07/24 11:37:06;;;;;;;5.93;5.28;;;;;;;32.37;nan;100567.22;5013066;28;20034;-74